Wheaton NDB, MN

7:53 AM CDT on June 23, 2017 (GMT -0500)
Wheaton Municipal

Weather History for KETH - April, 2014

Change the Weather History Date:

Friday, April 4, 2014

  Actual Average Record
Temperature  
Mean Temperature 32 °F -  
Max Temperature 35 °F 48 °F 78 °F (2005)
Min Temperature 30 °F 27 °F 9 °F (1975)
Degree Days  
Heating Degree Days 32    
Moisture  
Dew Point 30 °F    
Average Humidity 89    
Maximum Humidity 100    
Minimum Humidity 75    
Precipitation  
Precipitation 0.00 in - - ()
Sea Level Pressure  
Sea Level Pressure 30.02 in    
Wind  
Wind Speed 12 mph (NW)    
Max Wind Speed 22 mph    
Max Gust Speed 30 mph    
Visibility 9 miles    
Events Snow    
Averages and records for this station are not official NWS values.
T = Trace of Precipitation, MM = Missing Value Source: NWS Daily Summary

Daily Weather History Graph

Daily Weather History Graph

Search for Another Location

Airport or City:

Trip Planner

Search our weather history database for the weather conditions in past years. The results will help you decide how hot, cold, wet, or windy it might be!

Date:

Astronomy

Apr. 04, 2014 Rise Set
Actual Time 7:00 AM CDT 7:58 PM CDT
Civil Twilight 6:30 AM CDT 8:28 PM CDT
Nautical Twilight 5:54 AM CDT 9:05 PM CDT
Astronomical Twilight 5:16 AM CDT 9:43 PM CDT
Moon 10:07 AM CDT (4/4) 12:28 AM CDT (4/4)
Length of Visible Light 13h 58m
Length of Day
12h 58m
Waxing Crescent, 25% of the Moon is Illuminated
Apr 4
Waxing Crescent
Apr 7
First Quarter
Apr 15
Full
Apr 22
Last Quarter
Apr 29
New

Hourly Weather History & Observations

Time (CDT) Temp. Windchill Dew Point Humidity Pressure Visibility Wind Dir Wind Speed Gust Speed Precip Events Conditions
12:15 AM 33.8 °F 27.0 °F 33.8 °F 100% 29.95 in 7.0 mi NNW 8.1 mph - N/A   Overcast
12:34 AM 33.8 °F 27.0 °F 33.8 °F 100% 29.95 in 5.0 mi North 8.1 mph - N/A   Overcast
12:55 AM 33.8 °F 25.8 °F 33.8 °F 100% 29.94 in 7.0 mi NNW 10.4 mph - N/A   Overcast
1:15 AM 33.8 °F 26.4 °F 33.8 °F 100% 29.94 in 5.0 mi NNW 9.2 mph - N/A   Overcast
1:35 AM 33.8 °F 25.3 °F 33.8 °F 100% 29.93 in 10.0 mi NNW 11.5 mph - N/A   Overcast
1:54 AM 33.8 °F 26.4 °F 33.8 °F 100% 29.93 in 7.0 mi NNW 9.2 mph - N/A   Overcast
2:14 AM 33.8 °F 25.8 °F 32.0 °F 93% 29.93 in 7.0 mi NNW 10.4 mph - N/A   Overcast
2:34 AM 33.8 °F 25.8 °F 33.8 °F 100% 29.93 in 3.0 mi North 10.4 mph - N/A   Overcast
2:55 AM 33.8 °F 25.8 °F 33.8 °F 100% 29.93 in 7.0 mi NNW 10.4 mph - N/A   Overcast
3:15 AM 33.8 °F 25.8 °F 33.8 °F 100% 29.93 in 7.0 mi NNW 10.4 mph - N/A   Overcast
3:34 AM 33.8 °F 25.3 °F 33.8 °F 100% 29.93 in 7.0 mi NNW 11.5 mph 19.6 mph N/A   Overcast
3:55 AM 33.8 °F 24.8 °F 32.0 °F 93% 29.94 in 10.0 mi NW 12.7 mph - N/A   Overcast
4:14 AM 33.8 °F 22.8 °F 32.0 °F 93% 29.93 in 7.0 mi NW 18.4 mph 21.9 mph N/A   Overcast
4:34 AM 33.8 °F 23.2 °F 32.0 °F 93% 29.94 in 7.0 mi NW 17.3 mph 24.2 mph N/A   Overcast
4:54 AM 33.8 °F 22.8 °F 32.0 °F 93% 29.95 in 5.0 mi NW 18.4 mph 25.3 mph N/A   Overcast
5:14 AM 33.8 °F 22.5 °F 30.2 °F 87% 29.94 in 5.0 mi NW 19.6 mph 25.3 mph N/A   Overcast
5:35 AM 32.0 °F 20.8 °F 30.2 °F 93% 29.95 in 4.0 mi NW 17.3 mph 23.0 mph N/A   Overcast
5:55 AM 32.0 °F 21.2 °F 30.2 °F 93% 29.96 in 5.0 mi NW 16.1 mph 24.2 mph N/A   Overcast
6:15 AM 32.0 °F 22.5 °F 30.2 °F 93% 29.96 in 7.0 mi NW 12.7 mph 21.9 mph N/A   Overcast
6:35 AM 32.0 °F 20.8 °F 30.2 °F 93% 29.97 in 7.0 mi NNW 17.3 mph 26.5 mph N/A   Overcast
6:54 AM 32.0 °F 20.8 °F 30.2 °F 93% 29.98 in 7.0 mi NNW 17.3 mph 21.9 mph N/A   Overcast
7:14 AM 32.0 °F 21.2 °F 30.2 °F 93% 29.99 in 7.0 mi NW 16.1 mph 20.7 mph N/A   Overcast
7:34 AM 32.0 °F 20.5 °F 30.2 °F 93% 30.00 in 10.0 mi NW 18.4 mph 23.0 mph N/A   Overcast
7:54 AM 32.0 °F 22.1 °F 30.2 °F 93% 30.00 in 10.0 mi NW 13.8 mph 23.0 mph N/A   Overcast
8:14 AM 30.2 °F 18.5 °F 30.2 °F 100% 30.01 in 10.0 mi NNW 17.3 mph 21.9 mph N/A   Overcast
8:35 AM 30.2 °F 18.5 °F 30.2 °F 100% 30.02 in 10.0 mi NNW 17.3 mph 26.5 mph N/A Snow Light Snow
8:55 AM 30.2 °F 17.1 °F 30.2 °F 100% 30.02 in 10.0 mi NNW 21.9 mph 28.8 mph N/A   Overcast
9:14 AM 30.2 °F 18.1 °F 30.2 °F 100% 30.02 in 10.0 mi NNW 18.4 mph 29.9 mph N/A   Overcast
9:34 AM 30.2 °F 17.4 °F 30.2 °F 100% 30.02 in 10.0 mi NW 20.7 mph 26.5 mph N/A   Overcast
9:55 AM 32.0 °F 21.2 °F 30.2 °F 93% 30.03 in 10.0 mi NW 16.1 mph 26.5 mph N/A   Overcast
10:14 AM 32.0 °F 20.5 °F 30.2 °F 93% 30.03 in 10.0 mi NW 18.4 mph 25.3 mph N/A   Overcast
10:34 AM 32.0 °F 20.5 °F 30.2 °F 93% 30.04 in 10.0 mi NW 18.4 mph 28.8 mph N/A   Overcast
10:55 AM 32.0 °F 20.8 °F 30.2 °F 93% 30.05 in 10.0 mi NW 17.3 mph 25.3 mph N/A   Overcast
11:14 AM 30.2 °F 18.5 °F 28.4 °F 93% 30.05 in 10.0 mi NW 17.3 mph 23.0 mph N/A   Overcast
11:34 AM 32.0 °F 20.8 °F 28.4 °F 87% 30.05 in 10.0 mi NW 17.3 mph 21.9 mph N/A   Overcast
11:54 AM 32.0 °F 21.6 °F 28.4 °F 87% 30.05 in 10.0 mi NW 15.0 mph 20.7 mph N/A   Overcast
12:14 PM 32.0 °F 21.6 °F 30.2 °F 93% 30.05 in 10.0 mi NW 15.0 mph - N/A   Overcast
12:34 PM 32.0 °F 21.6 °F 30.2 °F 93% 30.05 in 10.0 mi NW 15.0 mph 21.9 mph N/A   Overcast
12:54 PM 33.8 °F 24.3 °F 30.2 °F 87% 30.05 in 10.0 mi NW 13.8 mph 19.6 mph N/A   Overcast
1:14 PM 33.8 °F 23.9 °F 30.2 °F 87% 30.05 in 10.0 mi NW 15.0 mph 18.4 mph N/A   Overcast
1:54 PM 35.6 °F 27.1 °F 30.2 °F 81% 30.05 in 10.0 mi NW 12.7 mph - N/A   Overcast
2:15 PM 35.6 °F 26.2 °F 32.0 °F 87% 30.04 in 10.0 mi WNW 15.0 mph - N/A   Overcast
2:34 PM 35.6 °F 25.9 °F 32.0 °F 87% 30.04 in 10.0 mi NW 16.1 mph - N/A   Overcast
2:55 PM 35.6 °F 27.1 °F 30.2 °F 81% 30.05 in 10.0 mi WNW 12.7 mph - N/A   Overcast
3:14 PM 35.6 °F 26.6 °F 30.2 °F 81% 30.05 in 10.0 mi West 13.8 mph 18.4 mph N/A   Overcast
3:35 PM 35.6 °F 26.6 °F 30.2 °F 81% 30.05 in 10.0 mi West 13.8 mph 18.4 mph N/A   Overcast
3:55 PM 35.6 °F 27.1 °F 30.2 °F 81% 30.06 in 10.0 mi West 12.7 mph 19.6 mph N/A   Overcast
4:15 PM 35.6 °F 26.2 °F 30.2 °F 81% 30.06 in 10.0 mi West 15.0 mph - N/A   Overcast
4:34 PM 35.6 °F 27.1 °F 30.2 °F 81% 30.06 in 10.0 mi WNW 12.7 mph - N/A   Overcast
4:54 PM 35.6 °F 27.5 °F 30.2 °F 81% 30.06 in 10.0 mi WNW 11.5 mph - N/A   Overcast
5:15 PM 35.6 °F 28.6 °F 30.2 °F 81% 30.06 in 10.0 mi WNW 9.2 mph - N/A   Overcast
5:34 PM 35.6 °F 27.5 °F 30.2 °F 81% 30.07 in 10.0 mi West 11.5 mph - N/A   Overcast
5:54 PM 35.6 °F 28.6 °F 30.2 °F 81% 30.07 in 10.0 mi West 9.2 mph - N/A   Overcast
6:14 PM 35.6 °F 28.6 °F 30.2 °F 81% 30.07 in 10.0 mi WNW 9.2 mph - N/A   Overcast
6:34 PM 35.6 °F 29.9 °F 30.2 °F 81% 30.07 in 10.0 mi West 6.9 mph - N/A   Overcast
6:54 PM 35.6 °F 30.7 °F 30.2 °F 81% 30.08 in 10.0 mi West 5.8 mph - N/A   Overcast
7:14 PM 35.6 °F 29.2 °F 28.4 °F 75% 30.08 in 10.0 mi West 8.1 mph - N/A   Overcast
7:34 PM 35.6 °F 31.7 °F 28.4 °F 75% 30.09 in 10.0 mi West 4.6 mph - N/A   Overcast
7:55 PM 33.8 °F 29.6 °F 28.4 °F 81% 30.09 in 10.0 mi West 4.6 mph - N/A   Overcast
8:15 PM 33.8 °F 28.6 °F 28.4 °F 81% 30.09 in 10.0 mi West 5.8 mph - N/A   Overcast
8:34 PM 33.8 °F - 28.4 °F 81% 30.09 in 10.0 mi Calm Calm - N/A   Overcast
8:55 PM 33.8 °F - 28.4 °F 81% 30.09 in 10.0 mi Calm Calm - N/A   Overcast
9:14 PM 33.8 °F - 28.4 °F 81% 30.09 in 10.0 mi Calm Calm - N/A   Overcast
9:34 PM 33.8 °F - 28.4 °F 81% 30.09 in 10.0 mi Calm Calm - N/A   Overcast
9:54 PM 33.8 °F - 28.4 °F 81% 30.09 in 10.0 mi Calm Calm - N/A   Overcast
10:15 PM 33.8 °F - 26.6 °F 75% 30.08 in 10.0 mi Calm Calm - N/A   Mostly Cloudy
10:34 PM 32.0 °F - 26.6 °F 80% 30.08 in 10.0 mi Calm Calm - N/A   Scattered Clouds
10:54 PM 30.2 °F - 26.6 °F 86% 30.08 in 10.0 mi Calm Calm - N/A   Clear
11:15 PM 32.0 °F - 26.6 °F 80% 30.08 in 10.0 mi Calm Calm - N/A   Clear
11:34 PM 30.2 °F 26.7 °F 26.6 °F 86% 30.08 in 10.0 mi SSE 3.5 mph - N/A   Clear
11:55 PM 30.2 °F 26.7 °F 26.6 °F 86% 30.07 in 10.0 mi South 3.5 mph - N/A   Clear